createdAt,value
2018-07-25T00:14:18.509Z,24.8
2018-07-25T00:31:09.744Z,24.2
2018-07-25T00:48:00.727Z,24.2
2018-07-25T00:58:07.104Z,23.5
2018-07-25T01:14:57.439Z,23.5
2018-07-25T01:28:25.559Z,23.2
2018-07-25T01:45:15.412Z,22.9
2018-07-25T02:02:04.967Z,22.6
2018-07-25T02:18:54.248Z,22.2
2018-07-25T02:35:43.391Z,22.2
2018-07-25T02:52:32.397Z,21.9
2018-07-25T03:09:21.236Z,21.9
2018-07-25T03:26:09.816Z,21.6
2018-07-25T03:42:58.155Z,21.3
2018-07-25T03:59:45.994Z,21.3
2018-07-25T04:16:33.737Z,21.3
2018-07-25T04:33:21.694Z,21.3
2018-07-25T04:50:10.157Z,21.3
2018-07-25T05:06:58.543Z,21.6
2018-07-25T05:23:47.197Z,21.9
2018-07-25T05:37:14.483Z,22.6
2018-07-25T05:54:03.933Z,22.9
2018-07-25T06:07:31.813Z,23.5
2018-07-25T06:24:22.167Z,24.2
2018-07-25T06:37:51.486Z,24.8
2018-07-25T06:51:20.280Z,25.4
2018-07-25T07:01:27.505Z,26.1
2018-07-25T07:18:20.012Z,26.4
2018-07-25T07:31:50.473Z,27.0
2018-07-25T07:48:44.612Z,27.4
2018-07-25T07:58:53.479Z,28.0
2018-07-25T08:15:49.594Z,28.3
2018-07-25T08:24:16.855Z,28.3
2018-07-25T08:41:12.648Z,28.6
2018-07-25T08:51:22.424Z,29.3
2018-07-25T08:58:08.889Z,29.3
2018-07-25T09:15:05.795Z,29.9
2018-07-25T09:25:16.445Z,30.6
2018-07-25T09:42:14.636Z,30.9
2018-07-25T09:57:31.470Z,31.5
2018-07-25T10:14:30.605Z,31.5
2018-07-25T10:26:24.220Z,32.2
2018-07-25T10:43:23.405Z,32.5
2018-07-25T10:56:58.974Z,32.8
2018-07-25T11:13:58.942Z,33.1
2018-07-25T11:31:00.650Z,33.4
2018-07-25T11:47:59.955Z,33.8
2018-07-25T11:54:48.714Z,34.4
2018-07-25T12:08:25.797Z,35.0
2018-07-25T12:25:27.537Z,34.7
2018-07-25T12:42:28.972Z,34.4
2018-07-25T12:50:59.773Z,35.0
2018-07-25T13:08:01.047Z,34.4
2018-07-25T13:25:02.316Z,34.4
2018-07-25T13:33:33.124Z,35.0
2018-07-25T13:50:35.209Z,36.0
2018-07-25T14:07:37.833Z,35.4
2018-07-25T14:24:39.993Z,35.7
2018-07-25T14:41:42.453Z,34.7
2018-07-25T14:58:43.200Z,34.1
2018-07-25T15:15:44.076Z,33.8
2018-07-25T15:32:44.887Z,33.4
2018-07-25T15:49:45.167Z,32.8
2018-07-25T15:56:33.035Z,32.2
2018-07-25T16:13:32.690Z,31.8
2018-07-25T16:28:50.086Z,31.2
2018-07-25T16:42:24.884Z,30.6
2018-07-25T16:59:22.728Z,30.2
2018-07-25T17:16:20.423Z,29.9
2018-07-25T17:26:29.461Z,29.3
2018-07-25T17:36:38.975Z,28.6
2018-07-25T17:53:34.096Z,28.3
2018-07-25T18:10:28.787Z,28.0
2018-07-25T18:27:23.359Z,27.7
2018-07-25T18:44:17.734Z,27.4
2018-07-25T18:54:26.172Z,27.0
2018-07-25T19:07:57.101Z,26.7
2018-07-25T19:21:27.552Z,26.1
2018-07-25T19:38:22.108Z,26.1
2018-07-25T19:55:14.679Z,26.1
2018-07-25T20:12:05.365Z,25.8
2018-07-25T20:28:59.646Z,25.4
2018-07-25T20:45:51.096Z,24.8
2018-07-25T21:02:42.193Z,24.8
2018-07-25T21:19:32.289Z,24.5
2018-07-25T21:36:23.416Z,24.5
2018-07-25T21:53:14.417Z,24.2
2018-07-25T22:10:05.346Z,24.2
2018-07-25T22:26:56.117Z,23.8
2018-07-25T22:43:46.770Z,23.8
2018-07-25T23:00:37.319Z,23.5
2018-07-25T23:17:27.637Z,23.5
2018-07-25T23:34:17.885Z,23.5
2018-07-25T23:51:08.024Z,23.2
